KGVLKAJR

Guest
Details From KGVL - Gainsville - Lee Gilmer Mem
To KAJR - HABERSHAM CO
Flight Number -
Tags generated
Created
Modified
Stats Distance 20 nm / 37 km
Max Altitude 2,500 ft / 762 m
Waypoints 3
Social Downloads 1
Likes 0
Share VATSIM

Download

Looking for another format? Having issues loading an existing format? Contact us
Advertisement - Login to hide

Notes

Basic altitude profile: - Ascent Rate: 2500ft/min - Ascent Speed: 250kts - Cruise Altitude: 35000ft - Cruise Speed: 420kts - Descent Rate: 1500ft/min - Descent Speed: 250kts Options: - Use NATs: yes - Use PACOTS: yes - Use low airways: yes - Use high airways: no

Route

KGVL MACEY KAJR

ID Type Via Altitude Latitude Longitude Leg Dist Tot Dist Heading (true) Name
O KGVL APT - 0 ft / 0 m 34.27260˚ -83.82990˚ - 0 nm - Gainsville - Lee Gilmer Mem
MACEY FIX - 2,500 ft / 762 m 34.33340˚ -83.68863˚ 7 nm 7 nm 62° / 63° -
O KAJR APT - 0 ft / 0 m 34.49989˚ -83.55669˚ 11 nm 19 nm 33° / 33° HABERSHAM CO

Altitude Profile

Advertisement - Login to hide

KGVL

Details ICAO KGVL (GVL)
Name Gainsville - Lee Gilmer Mem
Region United States
Timezone America/New_York (UTC-5.0)
Stats Elevation 1,275 ft / 389 m (AMSL)
Location 34.272600° -83.829899°
Runways 2
Magnetic Variation 5.595° W

METAR

KGVL 111053Z AUTO 27006KT 10SM CLR 01/M03 A3016 RMK AO2 SLP217 T00111028

Decode

TAF

Not found

Departure Runways

ID Width Length Bearing (true) Bearing (mag) Surface Threshold Offset Overrun Length
05 98 ft / 30 m 5,504 ft / 1,678 m 40.88° 46.47° Asphalt 0 ft / 0 m 151 ft / 46 m
11 98 ft / 30 m 3,995 ft / 1,218 m 107.58° 113.17° Asphalt 0 ft / 0 m 0 ft / 0 m
23 98 ft / 30 m 5,504 ft / 1,678 m 220.89° 226.48° Asphalt 131 ft / 40 m 151 ft / 46 m
29 98 ft / 30 m 3,995 ft / 1,218 m 287.59° 293.18° Asphalt 0 ft / 0 m 0 ft / 0 m

KAJR

Details ICAO KAJR
Name HABERSHAM CO
Region United States
Timezone America/New_York (UTC-5.0)
Stats Elevation 1,447 ft / 441 m (AMSL)
Location 34.499893° -83.556691°
Runways 1
Magnetic Variation 5.816° W

METAR

KAJR 111135Z AUTO 00000KT 10SM CLR 00/M04 A3013 RMK AO2 T10041042

Decode

TAF

Not found

Destination Runways

ID Width Length Bearing (true) Bearing (mag) Surface Threshold Offset Overrun Length
06 100 ft / 30 m 5,497 ft / 1,675 m 57.18° 63.00° Asphalt 1,390 ft / 424 m 0 ft / 0 m
24 100 ft / 30 m 5,497 ft / 1,675 m 237.19° 243.01° Asphalt 0 ft / 0 m 0 ft / 0 m